Klickitat, Washington
Current Conditions -  °F | °C
As of 3:53 AM on Wednesday 26 Nov 2014 (Local Time) from KDLS Reporting Station
Overcast Overcast  
Wind Chill: 57°   Ceiling: 6500
Heat Index: 57°   Visibility: 10mi
Dew Point: 49°   Wind: 0mph
Humidity: 74%   Direction: NA
Pressure: 30.21"   Gusts: NA
Location:  45.82°N, 121.15°W
Report Text: KDLS 261153Z AUTO 00000KT 10SM OVC065 14/09 A3021 RMK AO2 SLP229 T01390094 10156 20122 58004
Loading
Personal Weather Stations






























Interactive Weather Map New forecast layout! Learn more

10-Day Weather Forecast

Advertisements
Track Severe Weather on mobile